sensor_id;sensor_type;location;lat;lon;timestamp;temperature;humidity
42913;DHT22;50720;54.324;18.558;2023-03-14T00:00:23;10.50;99.90
42913;DHT22;50720;54.324;18.558;2023-03-14T00:03:13;10.50;99.90
42913;DHT22;50720;54.324;18.558;2023-03-14T00:05:43;10.50;99.90
42913;DHT22;50720;54.324;18.558;2023-03-14T00:08:14;10.50;99.90
42913;DHT22;50720;54.324;18.558;2023-03-14T00:10:45;10.40;99.90
42913;DHT22;50720;54.324;18.558;2023-03-14T00:13:15;10.50;99.90
42913;DHT22;50720;54.324;18.558;2023-03-14T00:15:44;10.50;99.90
42913;DHT22;50720;54.324;18.558;2023-03-14T00:18:14;10.50;99.90
42913;DHT22;50720;54.324;18.558;2023-03-14T00:20:44;10.50;99.90
42913;DHT22;50720;54.324;18.558;2023-03-14T00:23:14;10.50;99.90
42913;DHT22;50720;54.324;18.558;2023-03-14T00:25:45;10.50;99.90
42913;DHT22;50720;54.324;18.558;2023-03-14T00:28:14;10.50;99.90
42913;DHT22;50720;54.324;18.558;2023-03-14T00:30:44;10.40;99.90
42913;DHT22;50720;54.324;18.558;2023-03-14T00:33:14;10.40;99.90
42913;DHT22;50720;54.324;18.558;2023-03-14T00:35:43;10.40;99.90
42913;DHT22;50720;54.324;18.558;2023-03-14T00:38:14;10.40;99.90
42913;DHT22;50720;54.324;18.558;2023-03-14T00:40:44;10.40;99.90
42913;DHT22;50720;54.324;18.558;2023-03-14T00:43:14;10.40;99.90
42913;DHT22;50720;54.324;18.558;2023-03-14T00:45:44;10.40;99.90
42913;DHT22;50720;54.324;18.558;2023-03-14T00:48:14;10.40;99.90
42913;DHT22;50720;54.324;18.558;2023-03-14T00:50:44;10.50;99.90
42913;DHT22;50720;54.324;18.558;2023-03-14T00:53:14;10.50;99.90
42913;DHT22;50720;54.324;18.558;2023-03-14T00:55:45;10.50;99.90
42913;DHT22;50720;54.324;18.558;2023-03-14T00:58:17;10.50;99.90
42913;DHT22;50720;54.324;18.558;2023-03-14T01:00:46;10.50;99.90
42913;DHT22;50720;54.324;18.558;2023-03-14T01:03:17;10.50;99.90
42913;DHT22;50720;54.324;18.558;2023-03-14T01:05:46;10.50;99.90
42913;DHT22;50720;54.324;18.558;2023-03-14T01:08:16;10.50;99.90
42913;DHT22;50720;54.324;18.558;2023-03-14T01:10:47;10.50;99.90
42913;DHT22;50720;54.324;18.558;2023-03-14T01:13:17;10.50;99.90
42913;DHT22;50720;54.324;18.558;2023-03-14T01:15:47;10.60;99.90
42913;DHT22;50720;54.324;18.558;2023-03-14T01:18:17;10.60;99.90
42913;DHT22;50720;54.324;18.558;2023-03-14T01:20:47;10.60;99.90
42913;DHT22;50720;54.324;18.558;2023-03-14T01:23:17;10.60;99.90
42913;DHT22;50720;54.324;18.558;2023-03-14T01:25:48;10.60;99.90
42913;DHT22;50720;54.324;18.558;2023-03-14T01:28:18;10.60;99.90
42913;DHT22;50720;54.324;18.558;2023-03-14T01:30:48;10.60;99.90
42913;DHT22;50720;54.324;18.558;2023-03-14T01:33:18;10.60;99.90
42913;DHT22;50720;54.324;18.558;2023-03-14T01:35:50;10.60;99.90
42913;DHT22;50720;54.324;18.558;2023-03-14T01:38:20;10.60;99.90
42913;DHT22;50720;54.324;18.558;2023-03-14T01:40:51;10.60;99.90
42913;DHT22;50720;54.324;18.558;2023-03-14T01:43:21;10.60;99.90
42913;DHT22;50720;54.324;18.558;2023-03-14T01:46:21;10.60;99.90
42913;DHT22;50720;54.324;18.558;2023-03-14T01:48:59;10.60;99.90
42913;DHT22;50720;54.324;18.558;2023-03-14T01:51:32;10.60;99.90
42913;DHT22;50720;54.324;18.558;2023-03-14T01:54:10;10.70;99.90
42913;DHT22;50720;54.324;18.558;2023-03-14T01:56:45;10.70;99.90
42913;DHT22;50720;54.324;18.558;2023-03-14T01:59:15;10.60;99.90
42913;DHT22;50720;54.324;18.558;2023-03-14T02:01:47;10.70;99.90
42913;DHT22;50720;54.324;18.558;2023-03-14T02:04:18;10.60;99.90
42913;DHT22;50720;54.324;18.558;2023-03-14T02:06:54;10.60;99.90
42913;DHT22;50720;54.324;18.558;2023-03-14T02:09:26;10.70;99.90
42913;DHT22;50720;54.324;18.558;2023-03-14T02:11:57;10.60;99.90
42913;DHT22;50720;54.324;18.558;2023-03-14T02:14:30;10.60;99.90
42913;DHT22;50720;54.324;18.558;2023-03-14T02:17:02;10.60;99.90
42913;DHT22;50720;54.324;18.558;2023-03-14T02:19:46;10.60;99.90
42913;DHT22;50720;54.324;18.558;2023-03-14T02:22:18;10.60;99.90
42913;DHT22;50720;54.324;18.558;2023-03-14T02:24:54;10.60;99.90
42913;DHT22;50720;54.324;18.558;2023-03-14T02:27:28;10.60;99.90
42913;DHT22;50720;54.324;18.558;2023-03-14T02:29:59;10.50;99.90
42913;DHT22;50720;54.324;18.558;2023-03-14T02:32:32;10.50;99.90
42913;DHT22;50720;54.324;18.558;2023-03-14T02:35:05;10.40;99.90
42913;DHT22;50720;54.324;18.558;2023-03-14T02:37:41;10.40;99.90
42913;DHT22;50720;54.324;18.558;2023-03-14T02:40:11;10.40;99.90
42913;DHT22;50720;54.324;18.558;2023-03-14T02:42:42;10.40;99.90
42913;DHT22;50720;54.324;18.558;2023-03-14T02:45:33;10.30;99.90
42913;DHT22;50720;54.324;18.558;2023-03-14T02:48:06;10.40;99.90
42913;DHT22;50720;54.324;18.558;2023-03-14T02:50:37;10.40;99.90
42913;DHT22;50720;54.324;18.558;2023-03-14T02:53:08;10.30;99.90
42913;DHT22;50720;54.324;18.558;2023-03-14T02:55:38;10.30;99.90
42913;DHT22;50720;54.324;18.558;2023-03-14T02:58:09;10.10;99.90
42913;DHT22;50720;54.324;18.558;2023-03-14T03:00:38;10.10;99.90
42913;DHT22;50720;54.324;18.558;2023-03-14T03:03:08;10.00;99.90
42913;DHT22;50720;54.324;18.558;2023-03-14T03:05:39;10.10;99.90
42913;DHT22;50720;54.324;18.558;2023-03-14T03:08:10;10.10;99.90
42913;DHT22;50720;54.324;18.558;2023-03-14T03:10:40;10.10;99.90
42913;DHT22;50720;54.324;18.558;2023-03-14T03:13:11;10.10;99.90
42913;DHT22;50720;54.324;18.558;2023-03-14T03:15:41;10.10;99.90
42913;DHT22;50720;54.324;18.558;2023-03-14T03:18:10;10.10;99.90
42913;DHT22;50720;54.324;18.558;2023-03-14T03:20:40;10.10;99.90
42913;DHT22;50720;54.324;18.558;2023-03-14T03:23:10;10.10;99.90
42913;DHT22;50720;54.324;18.558;2023-03-14T03:25:40;10.20;99.90
42913;DHT22;50720;54.324;18.558;2023-03-14T03:28:10;10.20;99.90
42913;DHT22;50720;54.324;18.558;2023-03-14T03:30:40;10.30;99.90
42913;DHT22;50720;54.324;18.558;2023-03-14T03:33:11;10.40;99.90
42913;DHT22;50720;54.324;18.558;2023-03-14T03:35:43;10.50;99.90
42913;DHT22;50720;54.324;18.558;2023-03-14T03:38:14;10.50;99.90
42913;DHT22;50720;54.324;18.558;2023-03-14T03:40:44;10.50;99.90
42913;DHT22;50720;54.324;18.558;2023-03-14T03:43:15;10.50;99.90
42913;DHT22;50720;54.324;18.558;2023-03-14T03:45:46;10.60;99.90
42913;DHT22;50720;54.324;18.558;2023-03-14T03:48:15;10.60;99.90
42913;DHT22;50720;54.324;18.558;2023-03-14T03:50:45;10.60;99.90
42913;DHT22;50720;54.324;18.558;2023-03-14T03:53:15;10.60;99.90
42913;DHT22;50720;54.324;18.558;2023-03-14T03:56:00;10.60;99.90
42913;DHT22;50720;54.324;18.558;2023-03-14T03:58:31;10.60;99.90
42913;DHT22;50720;54.324;18.558;2023-03-14T04:01:01;10.60;99.90
42913;DHT22;50720;54.324;18.558;2023-03-14T04:03:31;10.60;99.90
42913;DHT22;50720;54.324;18.558;2023-03-14T04:06:02;10.60;99.90
42913;DHT22;50720;54.324;18.558;2023-03-14T04:08:31;10.60;99.90
42913;DHT22;50720;54.324;18.558;2023-03-14T04:11:02;10.60;99.90
42913;DHT22;50720;54.324;18.558;2023-03-14T04:13:34;10.50;99.90
42913;DHT22;50720;54.324;18.558;2023-03-14T04:16:08;10.60;99.90
42913;DHT22;50720;54.324;18.558;2023-03-14T04:18:39;10.50;99.90
42913;DHT22;50720;54.324;18.558;2023-03-14T04:21:09;10.60;99.90
42913;DHT22;50720;54.324;18.558;2023-03-14T04:23:39;10.50;99.90
42913;DHT22;50720;54.324;18.558;2023-03-14T04:26:09;10.50;99.90
42913;DHT22;50720;54.324;18.558;2023-03-14T04:28:41;10.50;99.90
42913;DHT22;50720;54.324;18.558;2023-03-14T04:31:12;10.50;99.90
42913;DHT22;50720;54.324;18.558;2023-03-14T04:33:42;10.50;99.90
42913;DHT22;50720;54.324;18.558;2023-03-14T04:36:13;10.60;99.90
42913;DHT22;50720;54.324;18.558;2023-03-14T04:38:43;10.60;99.90
42913;DHT22;50720;54.324;18.558;2023-03-14T04:41:13;10.50;99.90
42913;DHT22;50720;54.324;18.558;2023-03-14T04:43:44;10.50;99.90
42913;DHT22;50720;54.324;18.558;2023-03-14T04:46:13;10.60;99.90
42913;DHT22;50720;54.324;18.558;2023-03-14T04:48:43;10.50;99.90
42913;DHT22;50720;54.324;18.558;2023-03-14T04:51:13;10.50;99.90
42913;DHT22;50720;54.324;18.558;2023-03-14T04:53:43;10.50;99.90
42913;DHT22;50720;54.324;18.558;2023-03-14T04:56:13;10.50;99.90
42913;DHT22;50720;54.324;18.558;2023-03-14T04:58:43;10.50;99.90
42913;DHT22;50720;54.324;18.558;2023-03-14T05:01:13;10.40;99.90
42913;DHT22;50720;54.324;18.558;2023-03-14T05:03:43;10.40;99.90
42913;DHT22;50720;54.324;18.558;2023-03-14T05:06:12;10.40;99.90
42913;DHT22;50720;54.324;18.558;2023-03-14T05:08:42;10.30;99.90
42913;DHT22;50720;54.324;18.558;2023-03-14T05:11:13;10.30;99.90
42913;DHT22;50720;54.324;18.558;2023-03-14T05:13:44;10.30;99.90
42913;DHT22;50720;54.324;18.558;2023-03-14T05:16:14;10.20;99.90
42913;DHT22;50720;54.324;18.558;2023-03-14T05:18:43;10.20;99.90
42913;DHT22;50720;54.324;18.558;2023-03-14T05:21:13;10.10;99.90
42913;DHT22;50720;54.324;18.558;2023-03-14T05:23:42;10.10;99.90
42913;DHT22;50720;54.324;18.558;2023-03-14T05:26:12;10.10;99.90
42913;DHT22;50720;54.324;18.558;2023-03-14T05:28:45;10.10;99.90
42913;DHT22;50720;54.324;18.558;2023-03-14T05:31:15;10.10;99.90
42913;DHT22;50720;54.324;18.558;2023-03-14T05:33:45;10.10;99.90
42913;DHT22;50720;54.324;18.558;2023-03-14T05:36:15;10.00;99.90
42913;DHT22;50720;54.324;18.558;2023-03-14T05:38:45;10.00;99.90
42913;DHT22;50720;54.324;18.558;2023-03-14T05:41:15;10.00;99.90
42913;DHT22;50720;54.324;18.558;2023-03-14T05:43:45;10.00;99.90
42913;DHT22;50720;54.324;18.558;2023-03-14T05:46:15;10.00;99.90
42913;DHT22;50720;54.324;18.558;2023-03-14T05:48:44;10.00;99.90
42913;DHT22;50720;54.324;18.558;2023-03-14T05:51:14;10.10;99.90
42913;DHT22;50720;54.324;18.558;2023-03-14T05:53:44;10.10;99.90
42913;DHT22;50720;54.324;18.558;2023-03-14T05:56:14;10.10;99.90
42913;DHT22;50720;54.324;18.558;2023-03-14T05:58:45;10.20;99.90
42913;DHT22;50720;54.324;18.558;2023-03-14T06:01:14;10.20;99.90
42913;DHT22;50720;54.324;18.558;2023-03-14T06:03:44;10.20;99.90
42913;DHT22;50720;54.324;18.558;2023-03-14T06:06:14;10.20;99.90
42913;DHT22;50720;54.324;18.558;2023-03-14T06:08:44;10.20;99.90
42913;DHT22;50720;54.324;18.558;2023-03-14T06:11:14;10.30;99.90
42913;DHT22;50720;54.324;18.558;2023-03-14T06:13:45;10.30;99.90
42913;DHT22;50720;54.324;18.558;2023-03-14T06:16:15;10.30;99.90
42913;DHT22;50720;54.324;18.558;2023-03-14T06:18:44;10.30;99.90
42913;DHT22;50720;54.324;18.558;2023-03-14T06:21:17;10.30;99.90
42913;DHT22;50720;54.324;18.558;2023-03-14T06:23:47;10.30;99.90
42913;DHT22;50720;54.324;18.558;2023-03-14T06:26:17;10.40;99.90
42913;DHT22;50720;54.324;18.558;2023-03-14T06:28:47;10.30;99.90
42913;DHT22;50720;54.324;18.558;2023-03-14T06:31:18;10.40;99.90
42913;DHT22;50720;54.324;18.558;2023-03-14T06:33:47;10.40;99.90
42913;DHT22;50720;54.324;18.558;2023-03-14T06:36:17;10.40;99.90
42913;DHT22;50720;54.324;18.558;2023-03-14T06:38:46;10.50;99.90
42913;DHT22;50720;54.324;18.558;2023-03-14T06:41:17;10.50;99.90
42913;DHT22;50720;54.324;18.558;2023-03-14T06:43:48;10.60;99.90
42913;DHT22;50720;54.324;18.558;2023-03-14T06:46:18;10.60;99.90
42913;DHT22;50720;54.324;18.558;2023-03-14T06:48:47;10.60;99.90
42913;DHT22;50720;54.324;18.558;2023-03-14T06:51:17;10.60;99.90
42913;DHT22;50720;54.324;18.558;2023-03-14T06:53:46;10.70;99.90
42913;DHT22;50720;54.324;18.558;2023-03-14T06:56:16;10.70;99.90
42913;DHT22;50720;54.324;18.558;2023-03-14T06:58:47;10.70;99.90
42913;DHT22;50720;54.324;18.558;2023-03-14T07:01:21;10.70;99.90
42913;DHT22;50720;54.324;18.558;2023-03-14T07:03:52;10.80;99.90
42913;DHT22;50720;54.324;18.558;2023-03-14T07:06:23;10.90;99.90
42913;DHT22;50720;54.324;18.558;2023-03-14T07:08:53;10.90;99.90
42913;DHT22;50720;54.324;18.558;2023-03-14T07:11:22;10.90;99.90
42913;DHT22;50720;54.324;18.558;2023-03-14T07:13:53;10.90;99.90
42913;DHT22;50720;54.324;18.558;2023-03-14T07:16:23;10.90;99.90
42913;DHT22;50720;54.324;18.558;2023-03-14T07:18:56;10.90;99.90
42913;DHT22;50720;54.324;18.558;2023-03-14T07:21:26;11.00;99.90
42913;DHT22;50720;54.324;18.558;2023-03-14T07:23:56;11.10;99.90
42913;DHT22;50720;54.324;18.558;2023-03-14T07:26:25;11.20;99.90
42913;DHT22;50720;54.324;18.558;2023-03-14T07:28:56;11.30;99.90
42913;DHT22;50720;54.324;18.558;2023-03-14T07:31:26;11.40;99.90
42913;DHT22;50720;54.324;18.558;2023-03-14T07:33:56;11.50;99.90
42913;DHT22;50720;54.324;18.558;2023-03-14T07:36:25;11.60;99.90
42913;DHT22;50720;54.324;18.558;2023-03-14T07:38:55;11.60;99.90
42913;DHT22;50720;54.324;18.558;2023-03-14T07:41:25;11.80;99.90
42913;DHT22;50720;54.324;18.558;2023-03-14T07:43:56;11.90;99.90
42913;DHT22;50720;54.324;18.558;2023-03-14T07:46:26;12.00;99.90
42913;DHT22;50720;54.324;18.558;2023-03-14T07:48:56;12.10;99.90
42913;DHT22;50720;54.324;18.558;2023-03-14T07:51:26;12.20;99.90
42913;DHT22;50720;54.324;18.558;2023-03-14T07:53:55;12.20;99.90
42913;DHT22;50720;54.324;18.558;2023-03-14T07:56:25;12.20;99.90
42913;DHT22;50720;54.324;18.558;2023-03-14T07:58:56;12.10;99.90
42913;DHT22;50720;54.324;18.558;2023-03-14T08:01:25;12.10;99.90
42913;DHT22;50720;54.324;18.558;2023-03-14T08:03:55;12.20;99.90
42913;DHT22;50720;54.324;18.558;2023-03-14T08:06:25;12.20;99.90
42913;DHT22;50720;54.324;18.558;2023-03-14T08:08:55;12.30;99.90
42913;DHT22;50720;54.324;18.558;2023-03-14T08:11:25;12.40;99.90
42913;DHT22;50720;54.324;18.558;2023-03-14T08:13:56;12.30;99.90
42913;DHT22;50720;54.324;18.558;2023-03-14T08:16:26;12.40;99.90
42913;DHT22;50720;54.324;18.558;2023-03-14T08:18:56;12.30;99.90
42913;DHT22;50720;54.324;18.558;2023-03-14T08:21:26;12.30;99.90
42913;DHT22;50720;54.324;18.558;2023-03-14T08:23:55;12.40;99.90
42913;DHT22;50720;54.324;18.558;2023-03-14T08:26:25;12.30;99.90
42913;DHT22;50720;54.324;18.558;2023-03-14T08:28:56;12.40;99.90
42913;DHT22;50720;54.324;18.558;2023-03-14T08:31:26;12.40;99.90
42913;DHT22;50720;54.324;18.558;2023-03-14T08:33:58;12.40;99.90
42913;DHT22;50720;54.324;18.558;2023-03-14T08:36:28;12.40;99.90
42913;DHT22;50720;54.324;18.558;2023-03-14T08:38:58;12.40;99.90
42913;DHT22;50720;54.324;18.558;2023-03-14T08:41:28;12.40;99.90
42913;DHT22;50720;54.324;18.558;2023-03-14T08:43:59;12.40;99.90
42913;DHT22;50720;54.324;18.558;2023-03-14T08:46:29;12.50;99.90
42913;DHT22;50720;54.324;18.558;2023-03-14T08:48:58;12.50;99.90
42913;DHT22;50720;54.324;18.558;2023-03-14T08:51:28;12.50;99.90
42913;DHT22;50720;54.324;18.558;2023-03-14T08:53:58;12.50;99.90
42913;DHT22;50720;54.324;18.558;2023-03-14T08:56:28;12.50;99.90
42913;DHT22;50720;54.324;18.558;2023-03-14T08:59:01;12.50;99.90
42913;DHT22;50720;54.324;18.558;2023-03-14T09:01:31;12.50;99.90
42913;DHT22;50720;54.324;18.558;2023-03-14T09:04:01;12.50;99.90
42913;DHT22;50720;54.324;18.558;2023-03-14T09:06:31;12.60;99.90
42913;DHT22;50720;54.324;18.558;2023-03-14T09:09:00;12.60;99.90
42913;DHT22;50720;54.324;18.558;2023-03-14T09:11:30;12.70;99.90
42913;DHT22;50720;54.324;18.558;2023-03-14T09:14:02;12.70;99.90
42913;DHT22;50720;54.324;18.558;2023-03-14T09:16:33;12.70;99.90
42913;DHT22;50720;54.324;18.558;2023-03-14T09:19:03;12.80;99.90
42913;DHT22;50720;54.324;18.558;2023-03-14T09:21:33;12.80;99.90
42913;DHT22;50720;54.324;18.558;2023-03-14T09:24:03;12.80;99.90
42913;DHT22;50720;54.324;18.558;2023-03-14T09:26:33;12.80;99.90
42913;DHT22;50720;54.324;18.558;2023-03-14T09:29:04;12.80;99.90
42913;DHT22;50720;54.324;18.558;2023-03-14T09:31:34;12.80;99.90
42913;DHT22;50720;54.324;18.558;2023-03-14T09:34:04;12.70;99.90
42913;DHT22;50720;54.324;18.558;2023-03-14T09:36:34;12.80;99.90
42913;DHT22;50720;54.324;18.558;2023-03-14T09:39:05;12.70;99.90
42913;DHT22;50720;54.324;18.558;2023-03-14T09:41:38;12.80;99.90
42913;DHT22;50720;54.324;18.558;2023-03-14T09:44:13;12.80;99.90
42913;DHT22;50720;54.324;18.558;2023-03-14T09:46:46;12.80;99.90
42913;DHT22;50720;54.324;18.558;2023-03-14T09:49:20;12.70;99.90
42913;DHT22;50720;54.324;18.558;2023-03-14T09:51:53;12.80;99.90
42913;DHT22;50720;54.324;18.558;2023-03-14T09:54:34;12.70;99.90
42913;DHT22;50720;54.324;18.558;2023-03-14T09:57:05;12.60;99.90
42913;DHT22;50720;54.324;18.558;2023-03-14T09:59:37;12.50;99.90
42913;DHT22;50720;54.324;18.558;2023-03-14T10:02:15;12.40;99.90
42913;DHT22;50720;54.324;18.558;2023-03-14T10:04:47;12.30;99.90
42913;DHT22;50720;54.324;18.558;2023-03-14T10:07:27;12.30;99.90
42913;DHT22;50720;54.324;18.558;2023-03-14T10:09:58;12.30;99.90
42913;DHT22;50720;54.324;18.558;2023-03-14T10:12:32;12.30;99.90
42913;DHT22;50720;54.324;18.558;2023-03-14T10:15:05;12.20;99.90
42913;DHT22;50720;54.324;18.558;2023-03-14T10:17:40;12.30;99.90
42913;DHT22;50720;54.324;18.558;2023-03-14T10:20:36;12.30;99.90
42913;DHT22;50720;54.324;18.558;2023-03-14T10:23:18;12.30;99.90
42913;DHT22;50720;54.324;18.558;2023-03-14T10:26:00;12.40;99.90
42913;DHT22;50720;54.324;18.558;2023-03-14T10:28:34;12.30;99.90
42913;DHT22;50720;54.324;18.558;2023-03-14T10:31:08;12.30;99.90
42913;DHT22;50720;54.324;18.558;2023-03-14T10:33:38;12.30;99.90
42913;DHT22;50720;54.324;18.558;2023-03-14T10:36:17;12.40;99.90
42913;DHT22;50720;54.324;18.558;2023-03-14T10:38:49;12.40;99.90
42913;DHT22;50720;54.324;18.558;2023-03-14T10:41:24;12.50;99.90
42913;DHT22;50720;54.324;18.558;2023-03-14T10:43:57;12.60;99.90
42913;DHT22;50720;54.324;18.558;2023-03-14T10:46:31;12.70;99.90
42913;DHT22;50720;54.324;18.558;2023-03-14T10:49:04;12.70;99.90
42913;DHT22;50720;54.324;18.558;2023-03-14T10:51:35;12.80;99.90
42913;DHT22;50720;54.324;18.558;2023-03-14T10:54:13;12.80;99.90
42913;DHT22;50720;54.324;18.558;2023-03-14T10:56:43;12.70;99.90
42913;DHT22;50720;54.324;18.558;2023-03-14T10:59:14;12.70;99.90
42913;DHT22;50720;54.324;18.558;2023-03-14T11:01:51;12.60;99.90
42913;DHT22;50720;54.324;18.558;2023-03-14T11:04:45;12.50;99.90
42913;DHT22;50720;54.324;18.558;2023-03-14T11:07:23;12.50;99.90
42913;DHT22;50720;54.324;18.558;2023-03-14T11:09:58;12.50;99.90
42913;DHT22;50720;54.324;18.558;2023-03-14T11:12:38;12.40;99.90
42913;DHT22;50720;54.324;18.558;2023-03-14T11:15:13;12.50;99.90
42913;DHT22;50720;54.324;18.558;2023-03-14T11:17:53;12.60;99.90
42913;DHT22;50720;54.324;18.558;2023-03-14T11:20:37;12.90;99.90
42913;DHT22;50720;54.324;18.558;2023-03-14T11:23:13;13.10;99.90
42913;DHT22;50720;54.324;18.558;2023-03-14T11:25:49;13.30;99.90
42913;DHT22;50720;54.324;18.558;2023-03-14T11:28:26;13.40;99.90
42913;DHT22;50720;54.324;18.558;2023-03-14T11:31:03;13.40;99.90
42913;DHT22;50720;54.324;18.558;2023-03-14T11:33:37;13.40;99.90
42913;DHT22;50720;54.324;18.558;2023-03-14T11:36:09;13.30;99.90
42913;DHT22;50720;54.324;18.558;2023-03-14T11:38:43;13.30;99.90
42913;DHT22;50720;54.324;18.558;2023-03-14T11:41:19;13.30;99.90
42913;DHT22;50720;54.324;18.558;2023-03-14T11:43:53;13.20;99.90
42913;DHT22;50720;54.324;18.558;2023-03-14T11:46:25;13.20;99.90
42913;DHT22;50720;54.324;18.558;2023-03-14T11:49:01;13.30;99.90
42913;DHT22;50720;54.324;18.558;2023-03-14T11:51:35;13.40;99.90
42913;DHT22;50720;54.324;18.558;2023-03-14T11:54:13;13.70;99.90
42913;DHT22;50720;54.324;18.558;2023-03-14T11:56:47;14.10;99.90
42913;DHT22;50720;54.324;18.558;2023-03-14T11:59:21;14.30;99.90
42913;DHT22;50720;54.324;18.558;2023-03-14T12:01:57;14.60;99.90
42913;DHT22;50720;54.324;18.558;2023-03-14T12:04:47;14.60;99.90
42913;DHT22;50720;54.324;18.558;2023-03-14T12:07:20;14.40;99.90
42913;DHT22;50720;54.324;18.558;2023-03-14T12:09:52;13.90;99.90
42913;DHT22;50720;54.324;18.558;2023-03-14T12:12:25;13.80;99.90
42913;DHT22;50720;54.324;18.558;2023-03-14T12:14:57;14.20;99.90
42913;DHT22;50720;54.324;18.558;2023-03-14T12:17:35;14.60;99.90
42913;DHT22;50720;54.324;18.558;2023-03-14T12:20:16;14.70;99.90
42913;DHT22;50720;54.324;18.558;2023-03-14T12:22:48;14.70;99.90
42913;DHT22;50720;54.324;18.558;2023-03-14T12:25:20;14.60;99.90
42913;DHT22;50720;54.324;18.558;2023-03-14T12:28:05;14.20;99.90
42913;DHT22;50720;54.324;18.558;2023-03-14T12:30:45;14.00;99.90
42913;DHT22;50720;54.324;18.558;2023-03-14T12:33:25;13.80;99.90
42913;DHT22;50720;54.324;18.558;2023-03-14T12:39:17;13.80;99.90
42913;DHT22;50720;54.324;18.558;2023-03-14T12:41:52;14.00;99.90
42913;DHT22;50720;54.324;18.558;2023-03-14T12:44:41;14.80;99.90
42913;DHT22;50720;54.324;18.558;2023-03-14T12:50:20;17.20;99.90
42913;DHT22;50720;54.324;18.558;2023-03-14T12:53:33;17.90;99.90
42913;DHT22;50720;54.324;18.558;2023-03-14T12:56:38;18.10;99.90
42913;DHT22;50720;54.324;18.558;2023-03-14T12:59:29;18.60;99.90
42913;DHT22;50720;54.324;18.558;2023-03-14T13:02:02;18.50;99.90
42913;DHT22;50720;54.324;18.558;2023-03-14T13:04:34;17.90;99.90
42913;DHT22;50720;54.324;18.558;2023-03-14T13:07:11;17.50;99.90
42913;DHT22;50720;54.324;18.558;2023-03-14T13:10:00;17.00;99.90
42913;DHT22;50720;54.324;18.558;2023-03-14T13:12:38;16.40;99.90
42913;DHT22;50720;54.324;18.558;2023-03-14T13:15:17;15.70;99.90
42913;DHT22;50720;54.324;18.558;2023-03-14T13:17:49;15.30;99.90
42913;DHT22;50720;54.324;18.558;2023-03-14T13:20:26;15.00;99.90
42913;DHT22;50720;54.324;18.558;2023-03-14T13:22:57;15.00;99.90
42913;DHT22;50720;54.324;18.558;2023-03-14T13:25:30;15.60;99.90
42913;DHT22;50720;54.324;18.558;2023-03-14T13:28:03;15.80;99.90
42913;DHT22;50720;54.324;18.558;2023-03-14T13:30:40;15.80;99.90
42913;DHT22;50720;54.324;18.558;2023-03-14T13:33:15;15.60;99.90
42913;DHT22;50720;54.324;18.558;2023-03-14T13:35:47;15.40;99.90
42913;DHT22;50720;54.324;18.558;2023-03-14T13:38:19;15.30;99.90
42913;DHT22;50720;54.324;18.558;2023-03-14T13:40:49;15.20;99.90
42913;DHT22;50720;54.324;18.558;2023-03-14T13:43:31;15.10;99.90
42913;DHT22;50720;54.324;18.558;2023-03-14T13:46:05;15.10;99.90
42913;DHT22;50720;54.324;18.558;2023-03-14T13:48:42;15.10;99.90
42913;DHT22;50720;54.324;18.558;2023-03-14T13:51:13;15.10;99.90
42913;DHT22;50720;54.324;18.558;2023-03-14T13:53:45;15.00;99.90
42913;DHT22;50720;54.324;18.558;2023-03-14T13:56:15;15.40;99.90
42913;DHT22;50720;54.324;18.558;2023-03-14T13:58:47;16.30;99.90
42913;DHT22;50720;54.324;18.558;2023-03-14T14:01:17;16.70;99.90
42913;DHT22;50720;54.324;18.558;2023-03-14T14:03:50;16.70;99.90
42913;DHT22;50720;54.324;18.558;2023-03-14T14:06:27;16.50;99.90
42913;DHT22;50720;54.324;18.558;2023-03-14T14:09:00;16.00;99.90
42913;DHT22;50720;54.324;18.558;2023-03-14T14:11:39;16.00;99.90
42913;DHT22;50720;54.324;18.558;2023-03-14T14:14:23;16.20;99.90
42913;DHT22;50720;54.324;18.558;2023-03-14T14:16:54;16.40;99.90
42913;DHT22;50720;54.324;18.558;2023-03-14T14:19:28;16.20;99.90
42913;DHT22;50720;54.324;18.558;2023-03-14T14:21:59;15.90;99.90
42913;DHT22;50720;54.324;18.558;2023-03-14T14:24:31;15.60;99.90
42913;DHT22;50720;54.324;18.558;2023-03-14T14:27:07;15.20;99.90
42913;DHT22;50720;54.324;18.558;2023-03-14T14:29:39;14.90;99.90
42913;DHT22;50720;54.324;18.558;2023-03-14T14:32:12;14.70;99.90
42913;DHT22;50720;54.324;18.558;2023-03-14T14:34:44;14.80;99.90
42913;DHT22;50720;54.324;18.558;2023-03-14T14:37:21;14.50;99.90
42913;DHT22;50720;54.324;18.558;2023-03-14T14:39:57;14.40;99.90
42913;DHT22;50720;54.324;18.558;2023-03-14T14:42:30;14.20;99.90
42913;DHT22;50720;54.324;18.558;2023-03-14T14:45:03;13.90;99.90
42913;DHT22;50720;54.324;18.558;2023-03-14T14:47:32;13.80;99.90
42913;DHT22;50720;54.324;18.558;2023-03-14T14:50:04;13.80;99.90
42913;DHT22;50720;54.324;18.558;2023-03-14T14:52:40;13.70;99.90
42913;DHT22;50720;54.324;18.558;2023-03-14T14:55:16;13.70;99.90
42913;DHT22;50720;54.324;18.558;2023-03-14T14:57:50;13.50;99.90
42913;DHT22;50720;54.324;18.558;2023-03-14T15:00:24;13.40;99.90
42913;DHT22;50720;54.324;18.558;2023-03-14T15:02:58;13.30;99.90
42913;DHT22;50720;54.324;18.558;2023-03-14T15:05:29;13.30;99.90
42913;DHT22;50720;54.324;18.558;2023-03-14T15:08:07;13.60;99.90
42913;DHT22;50720;54.324;18.558;2023-03-14T15:10:38;13.90;99.90
42913;DHT22;50720;54.324;18.558;2023-03-14T15:13:07;13.90;99.90
42913;DHT22;50720;54.324;18.558;2023-03-14T15:15:43;13.90;99.90
42913;DHT22;50720;54.324;18.558;2023-03-14T15:18:16;13.70;99.90
42913;DHT22;50720;54.324;18.558;2023-03-14T15:21:04;13.70;99.90
42913;DHT22;50720;54.324;18.558;2023-03-14T15:23:33;13.50;99.90
42913;DHT22;50720;54.324;18.558;2023-03-14T15:26:04;13.40;99.90
42913;DHT22;50720;54.324;18.558;2023-03-14T15:28:34;13.20;99.90
42913;DHT22;50720;54.324;18.558;2023-03-14T15:31:10;13.10;99.90
42913;DHT22;50720;54.324;18.558;2023-03-14T15:33:40;13.00;99.90
42913;DHT22;50720;54.324;18.558;2023-03-14T15:36:19;13.00;99.90
42913;DHT22;50720;54.324;18.558;2023-03-14T15:38:50;12.90;99.90
42913;DHT22;50720;54.324;18.558;2023-03-14T15:41:21;12.90;99.90
42913;DHT22;50720;54.324;18.558;2023-03-14T15:43:50;12.80;99.90
42913;DHT22;50720;54.324;18.558;2023-03-14T15:46:22;12.80;99.90
42913;DHT22;50720;54.324;18.558;2023-03-14T15:48:52;12.70;99.90
42913;DHT22;50720;54.324;18.558;2023-03-14T15:51:21;12.70;99.90
42913;DHT22;50720;54.324;18.558;2023-03-14T15:53:51;12.70;99.90